Bookmark and Share
Track history (hours):
 

Pilot No. 4

More information available from US FCC via Universal Licensing System and Coast Guard Vessel Documentation Center.

Last reported at 2014-Apr-16 13:05 UTC. Time now 2014-Apr-16 13:48 UTC.
Position N 26°06' W 080°07'.

MMSI: 495270931.

NotesDate/timePositionNaut miles runAvg speedWind from/ knotsBaromVisibWave heightAir tempDewpointWater temp
2014-Apr-16 13:05N 26°06' W 080°07'4 6.9
2014-Apr-16 12:33N 26°06' W 080°03'3 3.2
2014-Apr-16 11:33N 26°06' W 080°07'1 0.1
2014-Apr-16 03:33N 26°06' W 080°06'1 1.1
2014-Apr-16 02:33N 26°06' W 080°07'1 0.9
2014-Apr-16 01:33N 26°06' W 080°07'0 0.1
2014-Apr-15 22:33N 26°06' W 080°06'0 0.4
2014-Apr-15 21:34N 26°06' W 080°06'1 1.4
2014-Apr-15 20:33N 26°06' W 080°04'2 2.3
2014-Apr-15 19:33N 26°05' W 080°07'1 0.3
2014-Apr-15 17:14N 26°06' W 080°07'1 1.3
2014-Apr-15 16:34N 26°06' W 080°07'1 0.9
2014-Apr-15 15:34N 26°06' W 080°07'2 2.0
2014-Apr-15 14:33N 26°06' W 080°05'2 1.0
2014-Apr-15 12:34N 26°06' W 080°07'1 1.1
2014-Apr-15 11:34N 26°06' W 080°06'0 0.0
2014-Apr-15 05:34N 26°06' W 080°06'1 0.3
2014-Apr-15 03:34N 26°06' W 080°07'0 0.0
2014-Apr-15 00:34N 26°06' W 080°07'1 0.5
2014-Apr-14 23:34N 26°06' W 080°06'1 0.8
2014-Apr-14 22:34N 26°05' W 080°07'2 1.0
2014-Apr-14 20:34N 26°06' W 080°05'2 0.6
2014-Apr-14 17:34N 26°05' W 080°07'1 0.9
2014-Apr-14 16:33N 26°06' W 080°07'0 0.0
2014-Apr-14 15:33N 26°06' W 080°07'1 0.7
2014-Apr-14 14:34N 26°06' W 080°07'1 0.7
2014-Apr-14 13:34N 26°06' W 080°07'2 1.0
2014-Apr-14 11:34N 26°06' W 080°05'2 1.6
2014-Apr-14 10:34N 26°05' W 080°07'0 0.1
2014-Apr-14 08:33N 26°05' W 080°07'2 0.2
2014-Apr-13 22:34N 26°05' W 080°04'3 2.6
2014-Apr-13 21:33N 26°06' W 080°07'2 2.5
2014-Apr-13 20:33N 26°06' W 080°04'2 1.2
2014-Apr-13 18:34N 26°06' W 080°07'0 0.1
2014-Apr-13 17:33N 26°05' W 080°07'0 0.2
2014-Apr-13 16:33N 26°06' W 080°07'0 0.1
2014-Apr-13 15:33N 26°06' W 080°07'1 1.4
2014-Apr-13 14:33N 26°06' W 080°06'1 1.4
2014-Apr-13 13:33N 26°06' W 080°07'0 0.3
2014-Apr-13 12:34N 26°06' W 080°07'0 0.5
2014-Apr-13 11:33N 26°06' W 080°07'0 0.5
2014-Apr-13 10:33N 26°06' W 080°07'5 4.8
2014-Apr-13 09:33N 26°05' W 080°02'2 2.1
2014-Apr-13 08:33N 26°05' W 080°04'3 0.5
2014-Apr-13 02:15N 26°06' W 080°07'1 0.9
2014-Apr-13 01:33N 26°06' W 080°07'1 0.5
2014-Apr-13 00:33N 26°05' W 080°07'0 0.5
2014-Apr-12 23:34N 26°06' W 080°07'0 0.3
2014-Apr-12 22:33N 26°06' W 080°07'1 0.5
2014-Apr-12 21:34N 26°06' W 080°07'0 0.2
2014-Apr-12 20:33N 26°06' W 080°07'1 0.3
2014-Apr-12 18:33N 26°06' W 080°06'1 1.0
2014-Apr-12 17:33N 26°05' W 080°07'1 0.9
2014-Apr-12 16:33N 26°04' W 080°07'1 1.3
2014-Apr-12 15:33N 26°05' W 080°07'1 1.2
2014-Apr-12 14:33N 26°06' W 080°06'2 1.7
2014-Apr-12 13:33N 26°06' W 080°07'1 1.0
2014-Apr-12 12:33N 26°06' W 080°06'1 0.5
2014-Apr-12 11:33N 26°06' W 080°07'1 0.6
2014-Apr-12 10:23N 26°06' W 080°07'1 1.1
2014-Apr-12 09:33N 26°05' W 080°07'1 0.1
2014-Apr-12 03:31N 26°06' W 080°07'0 0.2
2014-Apr-12 02:34N 26°06' W 080°07'0 0.0
2014-Apr-12 00:33N 26°06' W 080°07'1 1.4
2014-Apr-11 23:34N 26°06' W 080°06'1 0.8
2014-Apr-11 22:34N 26°06' W 080°07'0 0.4
2014-Apr-11 21:33N 26°05' W 080°07'3 3.3
2014-Apr-11 20:33N 26°06' W 080°03'2 1.9
2014-Apr-11 19:33N 26°06' W 080°05'1 1.5
2014-Apr-11 18:33N 26°05' W 080°07'1 1.0
2014-Apr-11 17:33N 26°06' W 080°07'1 0.9
2014-Apr-11 16:33N 26°05' W 080°07'1 0.7
2014-Apr-11 15:33N 26°06' W 080°06'0 0.2
2014-Apr-11 14:33N 26°06' W 080°06'1 0.4
2014-Apr-11 12:33N 26°06' W 080°06'2 1.4
2014-Apr-11 11:19N 26°06' W 080°07'1 1.4
2014-Apr-11 10:33N 26°05' W 080°07'0 0.1
2014-Apr-11 09:33N 26°05' W 080°07'0 0.0
2014-Apr-11 08:34N 26°05' W 080°07'0 0.3
2014-Apr-11 07:33N 26°05' W 080°07'0 0.3
2014-Apr-11 06:33N 26°06' W 080°07'2 1.7
2014-Apr-11 05:33N 26°04' W 080°07'1 0.5
2014-Apr-11 02:34N 26°05' W 080°07'0 0.1
2014-Apr-11 00:17N 26°05' W 080°07'1 1.4
2014-Apr-10 23:33N 26°06' W 080°06'1 0.8
2014-Apr-10 22:07N 26°06' W 080°07'1 1.0
2014-Apr-10 21:33N 26°06' W 080°07'0 0.2
2014-Apr-10 20:33N 26°06' W 080°07'1 0.5
2014-Apr-10 19:06N 26°06' W 080°07'1 1.5
2014-Apr-10 18:33N 26°06' W 080°07'2 1.0
2014-Apr-10 16:33N 26°06' W 080°05'1 0.8
2014-Apr-10 15:33N 26°05' W 080°04'3 3.4
2014-Apr-10 14:33N 26°04' W 080°08'3 1.3
2014-Apr-10 12:31N 26°06' W 080°07'0 0.4
2014-Apr-10 11:33N 26°06' W 080°07'2 1.7
2014-Apr-10 10:34N 26°05' W 080°05'1 1.0
2014-Apr-10 09:33N 26°06' W 080°04'2 1.9
2014-Apr-10 08:34N 26°04' W 080°03'2 1.9
2014-Apr-10 07:33N 26°06' W 080°04'3 2.9
2014-Apr-10 06:34N 26°05' W 080°07'0 0.5
2014-Apr-10 05:33N 26°06' W 080°07'1 0.3
2014-Apr-10 03:33N 26°06' W 080°06'1 0.3
2014-Apr-10 00:34N 26°06' W 080°05'2 0.7
2014-Apr-09 22:04N 26°06' W 080°07'1 1.6
2014-Apr-09 21:33N 26°05' W 080°07'1 1.1
2014-Apr-09 20:33N 26°06' W 080°06'1 0.2
2014-Apr-09 11:15N 26°06' W 080°07'1 1.5
2014-Apr-09 10:34N 26°05' W 080°07'1 0.2
2014-Apr-09 04:33N 26°06' W 080°07'3 3.3
2014-Apr-09 03:33N 26°05' W 080°04'3 2.5
2014-Apr-09 02:33N 26°06' W 080°06'1 0.4
2014-Apr-09 00:33N 26°06' W 080°05'2 1.8
2014-Apr-08 23:33N 26°06' W 080°07'1 1.4
2014-Apr-08 22:33N 26°06' W 080°06'1 1.1
2014-Apr-08 21:33N 26°06' W 080°07'0 0.1
2014-Apr-08 20:34N 26°06' W 080°07'0 0.5
2014-Apr-08 19:33N 26°06' W 080°07'0 0.0
2014-Apr-08 18:33N 26°06' W 080°07'2 2.4
2014-Apr-08 17:33N 26°05' W 080°05'2 2.0
2014-Apr-08 16:33N 26°06' W 080°07'1 0.7
2014-Apr-08 15:33N 26°06' W 080°07'1 0.6
2014-Apr-08 14:33N 26°06' W 080°07'1 0.6
2014-Apr-08 13:33N 26°06' W 080°07'2 1.9
2014-Apr-08 12:33N 26°06' W 080°05'2 0.8
2014-Apr-08 10:33N 26°06' W 080°07'3 2.5
2014-Apr-08 09:33N 26°06' W 080°04'2 2.5
2014-Apr-08 08:33N 26°05' W 080°07'4 3.9
2014-Apr-08 07:33N 26°06' W 080°03'4 3.9
2014-Apr-08 06:34N 26°06' W 080°07'1 0.6
2014-Apr-08 04:33N 26°06' W 080°06'1 0.4
2014-Apr-08 01:17N 26°06' W 080°07'2 2.5
2014-Apr-08 00:33N 26°06' W 080°05'0 0.5
2014-Apr-07 23:34N 26°06' W 080°06'0 0.4
2014-Apr-07 22:33N 26°06' W 080°06'0 0.0
2014-Apr-07 21:34N 26°06' W 080°07'0 0.2
2014-Apr-07 20:33N 26°06' W 080°07'1 0.8
2014-Apr-07 19:33N 26°06' W 080°07'1 0.4
2014-Apr-07 17:34N 26°06' W 080°07'1 0.3
2014-Apr-07 15:13N 26°06' W 080°07'0 0.0
2014-Apr-07 14:33N 26°06' W 080°07'2 2.2
2014-Apr-07 13:34N 26°05' W 080°05'2 1.9
2014-Apr-07 12:33N 26°06' W 080°07'3 3.4
2014-Apr-07 11:34N 26°04' W 080°04'3 2.8
2014-Apr-07 10:33N 26°06' W 080°07'1 0.5
2014-Apr-07 09:33N 26°05' W 080°07'4 4.3
2014-Apr-07 08:33N 26°05' W 080°02'4 4.4
2014-Apr-07 07:33N 26°06' W 080°07'1 0.6
2014-Apr-07 06:33N 26°05' W 080°07'1 0.2
2014-Apr-07 03:25N 26°06' W 080°07'0 0.3
2014-Apr-07 02:33N 26°06' W 080°07'2 0.5
2014-Apr-06 22:33N 26°06' W 080°05'2 1.7
2014-Apr-06 21:33N 26°05' W 080°07'0 0.3
2014-Apr-06 20:33N 26°06' W 080°07'0 0.2
2014-Apr-06 19:34N 26°06' W 080°07'  

Dump ship's entire track history

sailing weather and tide predictions

Pilot No. 4 — WDA5463 — position and weather